Dracena, Brazil
Current Conditions -  °F | °C
As of 5:00 PM on Monday 26 Jan 2015 (Local Time) from SBCG Reporting Station
Thunderstorm Thunderstorm  
Wind Chill: 79°   Ceiling: Unl
Heat Index: 81°   Visibility: 6mi
Dew Point: 68°   Wind: 5mph
Humidity: 69%   Direction: 180°S
Pressure: 29.85"   Gusts: NA
Location:  22.23°S, 54.82°W
Report Text: SBCG 262000Z 18004KT 140V220 9999 TS VCSH SCT035 FEW040CB 26/20 Q1011
Loading
Personal Weather Stations






























Interactive Weather Map New forecast layout! Learn more

10-Day Weather Forecast

Advertisements
Track Severe Weather on mobile